createdAt,value
2022-08-05T00:02:21.990Z,50.67
2022-08-05T00:04:55.877Z,50.77
2022-08-05T00:07:59.023Z,50.87
2022-08-05T00:10:10.737Z,51.00
2022-08-05T00:12:55.993Z,50.97
2022-08-05T00:15:55.132Z,51.23
2022-08-05T00:18:19.827Z,51.14
2022-08-05T00:20:50.986Z,51.32
2022-08-05T00:23:44.247Z,51.41
2022-08-05T00:26:06.798Z,51.46
2022-08-05T00:28:34.476Z,51.62
2022-08-05T00:31:04.396Z,51.47
2022-08-05T00:34:54.150Z,51.79
2022-08-05T00:37:10.380Z,51.93
2022-08-05T00:39:13.537Z,52.04
2022-08-05T00:41:51.664Z,51.98
2022-08-05T00:44:20.913Z,52.31
2022-08-05T00:46:54.237Z,52.26
2022-08-05T00:49:32.778Z,52.37
2022-08-05T00:52:00.542Z,52.53
2022-08-05T00:54:28.159Z,52.54
2022-08-05T00:56:57.179Z,52.68
2022-08-05T00:59:24.045Z,52.73
2022-08-05T01:01:51.256Z,52.66
2022-08-05T01:04:20.415Z,52.76
2022-08-05T01:06:53.937Z,52.84
2022-08-05T01:09:22.802Z,53.20
2022-08-05T01:11:53.064Z,53.20
2022-08-05T01:14:27.813Z,53.33
2022-08-05T01:17:07.038Z,53.49
2022-08-05T01:20:01.118Z,53.44
2022-08-05T01:22:57.266Z,53.69
2022-08-05T01:26:02.275Z,53.77
2022-08-05T01:28:53.085Z,54.04
2022-08-05T01:31:26.079Z,54.04
2022-08-05T01:34:10.389Z,54.24
2022-08-05T01:36:47.788Z,54.22
2022-08-05T01:39:46.390Z,54.38
2022-08-05T01:42:10.116Z,54.65
2022-08-05T01:44:41.866Z,54.79
2022-08-05T01:47:10.900Z,54.94
2022-08-05T01:50:00.166Z,54.94
2022-08-05T01:52:32.313Z,55.11
2022-08-05T01:55:04.415Z,55.22
2022-08-05T01:58:12.462Z,55.27
2022-08-05T02:00:21.412Z,55.38
2022-08-05T02:03:24.350Z,55.41
2022-08-05T02:05:59.811Z,55.67
2022-08-05T02:08:31.593Z,55.61
2022-08-05T02:11:11.752Z,55.82
2022-08-05T02:13:53.538Z,55.95
2022-08-05T02:16:37.084Z,55.95
2022-08-05T02:19:35.130Z,56.09
2022-08-05T02:22:10.079Z,56.21
2022-08-05T02:25:00.103Z,56.28
2022-08-05T02:27:30.187Z,56.46
2022-08-05T02:30:17.910Z,56.56
2022-08-05T02:32:55.750Z,56.74
2022-08-05T02:35:28.045Z,56.77
2022-08-05T02:37:59.096Z,56.85
2022-08-05T02:40:27.637Z,56.96
2022-08-05T02:42:56.840Z,57.07
2022-08-05T02:45:27.138Z,57.10
2022-08-05T02:48:06.712Z,57.17
2022-08-05T02:50:38.962Z,57.23
2022-08-05T02:53:19.083Z,57.30
2022-08-05T02:55:59.523Z,57.42
2022-08-05T02:58:28.755Z,57.52
2022-08-05T03:00:59.215Z,57.62
2022-08-05T03:03:34.354Z,57.68
2022-08-05T03:06:55.387Z,57.87
2022-08-05T03:09:04.767Z,57.98
2022-08-05T03:11:56.372Z,58.06
2022-08-05T03:14:18.497Z,58.19
2022-08-05T03:16:47.344Z,58.29
2022-08-05T03:19:33.056Z,58.43
2022-08-05T03:22:01.612Z,58.55
2022-08-05T03:24:30.813Z,58.57
2022-08-05T03:26:59.628Z,58.64
2022-08-05T03:29:45.392Z,58.75
2022-08-05T03:32:18.519Z,58.71
2022-08-05T03:34:50.810Z,58.89
2022-08-05T03:37:19.719Z,58.85
2022-08-05T03:40:13.306Z,59.08
2022-08-05T03:42:52.557Z,59.21
2022-08-05T03:45:23.005Z,59.32
2022-08-05T03:47:51.587Z,59.34
2022-08-05T03:50:18.652Z,59.28
2022-08-05T03:55:54.775Z,59.41
2022-08-05T03:56:10.005Z,59.46
2022-08-05T03:58:42.808Z,59.54
2022-08-05T04:01:14.127Z,59.48
2022-08-05T04:04:10.218Z,59.59
2022-08-05T04:06:35.263Z,59.69
2022-08-05T04:09:06.078Z,59.67
2022-08-05T04:11:50.644Z,59.67
2022-08-05T04:14:19.774Z,59.75
2022-08-05T04:16:59.874Z,59.75
2022-08-05T04:19:28.934Z,59.83
2022-08-05T04:22:08.965Z,59.78
2022-08-05T04:24:52.290Z,59.92
2022-08-05T04:27:42.117Z,59.88
2022-08-05T04:30:09.091Z,59.97
2022-08-05T04:32:36.394Z,59.87
2022-08-05T04:35:04.988Z,59.88
2022-08-05T04:38:00.870Z,59.88
2022-08-05T04:40:20.101Z,59.98
2022-08-05T04:42:46.981Z,59.96
2022-08-05T04:45:30.995Z,59.96
2022-08-05T04:48:18.543Z,60.08
2022-08-05T04:51:02.035Z,60.01
2022-08-05T04:53:33.340Z,60.09
2022-08-05T04:56:33.807Z,59.91
2022-08-05T04:58:49.711Z,60.01
2022-08-05T05:02:05.599Z,59.99
2022-08-05T05:04:04.679Z,60.09
2022-08-05T05:06:40.198Z,60.06
2022-08-05T05:09:14.272Z,60.01
2022-08-05T05:11:53.901Z,59.99
2022-08-05T05:14:27.810Z,60.12
2022-08-05T05:17:00.622Z,60.09
2022-08-05T05:19:37.215Z,59.96
2022-08-05T05:22:23.797Z,59.83
2022-08-05T05:24:57.471Z,59.73
2022-08-05T05:27:45.950Z,59.72
2022-08-05T05:30:30.576Z,59.68
2022-08-05T05:33:13.862Z,59.76
2022-08-05T05:35:48.281Z,59.72
2022-08-05T05:38:27.296Z,59.50
2022-08-05T05:40:56.409Z,59.42
2022-08-05T05:43:51.474Z,59.37
2022-08-05T05:46:17.372Z,59.26
2022-08-05T05:48:47.897Z,59.08
2022-08-05T05:51:23.184Z,58.95
2022-08-05T05:53:58.024Z,58.95
2022-08-05T05:56:32.901Z,58.87
2022-08-05T05:59:07.537Z,58.89
2022-08-05T06:01:40.384Z,58.99
2022-08-05T06:04:12.046Z,58.84
2022-08-05T06:06:43.077Z,58.86
2022-08-05T06:09:17.389Z,58.71
2022-08-05T06:12:01.291Z,58.68
2022-08-05T06:14:30.822Z,58.50
2022-08-05T06:16:58.554Z,58.48
2022-08-05T06:19:34.447Z,58.48
2022-08-05T06:22:06.712Z,58.42
2022-08-05T06:24:35.171Z,58.42
2022-08-05T06:27:03.936Z,58.06
2022-08-05T06:29:48.901Z,57.97
2022-08-05T06:32:26.329Z,57.84
2022-08-05T06:34:58.809Z,57.99
2022-08-05T06:37:39.444Z,57.75
2022-08-05T06:40:18.399Z,57.57
2022-08-05T06:42:52.133Z,57.43
2022-08-05T06:46:03.041Z,57.56
2022-08-05T06:48:37.079Z,57.38
2022-08-05T06:50:57.400Z,57.21
2022-08-05T06:53:28.320Z,57.47
2022-08-05T06:56:00.445Z,57.44
2022-08-05T06:58:36.417Z,57.43
2022-08-05T07:01:06.584Z,57.23
2022-08-05T07:03:34.724Z,57.02
2022-08-05T07:06:05.856Z,56.71
2022-08-05T07:08:47.267Z,56.58
2022-08-05T07:11:16.168Z,56.71
2022-08-05T07:14:02.742Z,56.65
2022-08-05T07:17:59.722Z,56.53
2022-08-05T07:22:28.614Z,56.15
2022-08-05T07:25:23.450Z,55.93
2022-08-05T07:27:58.585Z,55.79
2022-08-05T07:30:33.960Z,55.70
2022-08-05T07:33:09.198Z,55.37
2022-08-05T07:36:04.000Z,55.33
2022-08-05T07:38:33.380Z,55.53
2022-08-05T07:42:07.209Z,55.43
2022-08-05T07:43:56.313Z,54.80
2022-08-05T07:46:26.165Z,54.53
2022-08-05T07:49:03.350Z,54.61
2022-08-05T07:51:37.581Z,54.46
2022-08-05T07:54:10.081Z,54.38
2022-08-05T07:56:49.018Z,54.08
2022-08-05T07:59:38.955Z,53.87
2022-08-05T08:02:16.758Z,53.42
2022-08-05T08:04:49.237Z,53.24
2022-08-05T08:07:22.062Z,53.05
2022-08-05T08:09:52.397Z,53.35
2022-08-05T08:12:33.324Z,53.15
2022-08-05T08:15:15.252Z,52.93
2022-08-05T08:17:46.125Z,52.59
2022-08-05T08:20:43.615Z,52.44
2022-08-05T08:23:04.744Z,51.94
2022-08-05T08:26:00.537Z,51.69
2022-08-05T08:28:36.497Z,51.26
2022-08-05T08:31:07.101Z,51.11
2022-08-05T08:33:35.930Z,50.90
2022-08-05T08:36:38.385Z,50.59
2022-08-05T08:38:55.927Z,49.90
2022-08-05T08:41:50.656Z,49.61
2022-08-05T08:45:24.059Z,49.32
2022-08-05T08:47:47.261Z,48.77
2022-08-05T08:50:14.573Z,48.78
2022-08-05T08:52:51.664Z,48.67
2022-08-05T08:55:31.916Z,48.03
2022-08-05T08:58:09.950Z,47.58
2022-08-05T09:00:41.452Z,47.69
2022-08-05T09:03:11.530Z,47.59
2022-08-05T09:06:09.234Z,47.43
2022-08-05T09:08:27.303Z,47.14
2022-08-05T09:10:54.755Z,46.81
2022-08-05T09:13:23.636Z,46.75
2022-08-05T09:15:51.622Z,46.30
2022-08-05T09:18:18.803Z,46.19
2022-08-05T09:20:47.398Z,46.28
2022-08-05T09:23:21.625Z,45.11
2022-08-05T09:26:01.718Z,44.96
2022-08-05T09:28:33.759Z,45.06
2022-08-05T09:31:22.522Z,44.67
2022-08-05T09:34:01.862Z,44.47
2022-08-05T09:36:45.657Z,43.52
2022-08-05T09:39:39.551Z,43.77
2022-08-05T09:42:17.643Z,43.82
2022-08-05T09:44:56.208Z,43.84
2022-08-05T09:47:36.458Z,43.19
2022-08-05T09:50:18.185Z,42.57
2022-08-05T09:53:01.061Z,43.01
2022-08-05T09:55:58.643Z,42.90
2022-08-05T09:58:15.813Z,42.93
2022-08-05T10:01:13.307Z,42.70
2022-08-05T10:04:00.491Z,42.28
2022-08-05T10:06:28.431Z,41.90
2022-08-05T10:08:56.812Z,41.77
2022-08-05T10:11:24.355Z,41.20
2022-08-05T10:14:30.244Z,41.32
2022-08-05T10:17:37.921Z,41.46
2022-08-05T10:20:09.955Z,41.36
2022-08-05T10:22:43.187Z,40.38
2022-08-05T10:25:19.034Z,40.34
2022-08-05T10:28:12.823Z,40.08
2022-08-05T10:32:50.603Z,40.07
2022-08-05T10:33:28.893Z,39.42
2022-08-05T10:35:59.223Z,39.04
2022-08-05T10:38:29.910Z,38.98
2022-08-05T10:41:09.841Z,38.33
2022-08-05T10:43:51.998Z,38.05
2022-08-05T10:46:23.815Z,38.29
2022-08-05T10:49:06.411Z,38.55
2022-08-05T10:52:00.452Z,38.36
2022-08-05T10:55:12.152Z,37.82
2022-08-05T10:57:44.744Z,37.01
2022-08-05T11:00:19.615Z,37.46
2022-08-05T11:03:22.781Z,37.37
2022-08-05T11:06:15.673Z,37.11
2022-08-05T11:09:32.039Z,36.16
2022-08-05T11:12:26.527Z,36.07
2022-08-05T11:15:20.414Z,36.09
2022-08-05T11:18:05.980Z,36.03
2022-08-05T11:20:41.805Z,35.99
2022-08-05T11:24:05.161Z,36.00
2022-08-05T11:26:28.563Z,35.03
2022-08-05T11:29:11.917Z,35.08
2022-08-05T11:31:56.968Z,34.67
2022-08-05T11:34:38.906Z,34.89
2022-08-05T11:38:26.664Z,35.02
2022-08-05T11:39:55.465Z,35.21
2022-08-05T11:42:28.294Z,35.09
2022-08-05T11:45:03.679Z,34.38
2022-08-05T11:47:49.951Z,34.44
2022-08-05T11:50:18.296Z,34.60
2022-08-05T11:52:48.837Z,34.13
2022-08-05T11:55:17.378Z,33.72
2022-08-05T11:58:09.112Z,33.53
2022-08-05T12:00:38.160Z,33.60
2022-08-05T12:03:23.957Z,33.73
2022-08-05T12:06:02.849Z,33.16
2022-08-05T12:08:31.464Z,32.74
2022-08-05T12:11:05.534Z,32.71
2022-08-05T12:13:48.998Z,32.63
2022-08-05T12:16:19.755Z,32.73
2022-08-05T12:18:53.480Z,32.93
2022-08-05T12:21:26.751Z,32.91
2022-08-05T12:24:04.771Z,33.42
2022-08-05T12:26:33.981Z,32.75
2022-08-05T12:29:03.225Z,32.58
2022-08-05T12:31:42.511Z,31.97
2022-08-05T12:34:20.691Z,32.04
2022-08-05T12:36:52.311Z,31.92
2022-08-05T12:39:19.400Z,32.13
2022-08-05T12:41:46.472Z,32.14
2022-08-05T12:44:21.639Z,32.36
2022-08-05T12:47:00.556Z,31.58
2022-08-05T12:50:02.076Z,31.45
2022-08-05T12:52:32.416Z,31.08
2022-08-05T12:55:26.546Z,31.03
2022-08-05T12:58:49.054Z,30.97
2022-08-05T13:02:01.666Z,31.52
2022-08-05T13:03:42.329Z,31.29
2022-08-05T13:06:16.813Z,30.97
2022-08-05T13:08:50.726Z,31.08
2022-08-05T13:12:01.747Z,31.06
2022-08-05T13:14:20.427Z,31.14
2022-08-05T13:16:56.930Z,31.11
2022-08-05T13:19:52.195Z,31.07
2022-08-05T13:22:29.505Z,30.59
2022-08-05T13:25:05.292Z,30.52
2022-08-05T13:27:36.351Z,30.47
2022-08-05T13:30:35.275Z,30.21
2022-08-05T13:32:54.913Z,30.36
2022-08-05T13:35:31.471Z,30.19
2022-08-05T13:38:15.743Z,30.26
2022-08-05T13:40:55.613Z,29.74
2022-08-05T13:43:22.505Z,29.62
2022-08-05T13:45:50.804Z,29.64
2022-08-05T13:48:58.712Z,29.39
2022-08-05T13:51:10.367Z,29.27
2022-08-05T13:53:47.811Z,29.65
2022-08-05T13:56:18.163Z,29.20
2022-08-05T13:58:52.757Z,28.73
2022-08-05T14:01:23.689Z,28.54
2022-08-05T14:04:13.775Z,28.59
2022-08-05T14:06:40.919Z,28.48
2022-08-05T14:09:16.196Z,28.61
2022-08-05T14:12:00.677Z,28.71
2022-08-05T14:14:33.546Z,28.62
2022-08-05T14:17:00.850Z,28.21
2022-08-05T14:19:27.617Z,28.54
2022-08-05T14:22:09.725Z,28.74
2022-08-05T14:24:40.178Z,28.89
2022-08-05T14:27:17.746Z,29.04
2022-08-05T14:29:45.640Z,28.84
2022-08-05T14:32:27.264Z,28.93
2022-08-05T14:34:56.749Z,28.88
2022-08-05T14:37:45.574Z,28.61
2022-08-05T14:40:14.257Z,28.65
2022-08-05T14:42:44.766Z,29.01
2022-08-05T14:45:12.417Z,29.11
2022-08-05T14:48:02.678Z,29.17
2022-08-05T14:50:27.505Z,29.21
2022-08-05T14:52:59.196Z,29.29
2022-08-05T14:55:38.356Z,29.28
2022-08-05T14:58:13.722Z,29.35
2022-08-05T15:00:59.592Z,28.59
2022-08-05T15:03:33.930Z,28.45
2022-08-05T15:06:15.377Z,27.97
2022-08-05T15:08:57.986Z,28.26
2022-08-05T15:11:51.160Z,28.28
2022-08-05T15:14:33.256Z,28.48
2022-08-05T15:17:03.762Z,28.88
2022-08-05T15:19:31.454Z,29.13
2022-08-05T15:22:01.494Z,29.20
2022-08-05T15:24:29.736Z,29.17
2022-08-05T15:26:57.867Z,29.44
2022-08-05T15:29:30.169Z,29.79
2022-08-05T15:32:02.271Z,30.11
2022-08-05T15:34:33.265Z,30.16
2022-08-05T15:37:06.365Z,30.80
2022-08-05T15:41:01.466Z,31.09
2022-08-05T15:42:53.704Z,31.23
2022-08-05T15:45:15.165Z,31.03
2022-08-05T15:47:43.722Z,31.22
2022-08-05T15:50:15.417Z,31.29
2022-08-05T15:52:54.314Z,31.33
2022-08-05T15:55:24.730Z,31.67
2022-08-05T15:58:16.394Z,31.68
2022-08-05T16:00:50.822Z,31.96
2022-08-05T16:03:32.646Z,32.09
2022-08-05T16:06:01.016Z,31.77
2022-08-05T16:08:30.344Z,31.58
2022-08-05T16:10:58.608Z,31.44
2022-08-05T16:13:31.844Z,31.57
2022-08-05T16:16:01.933Z,31.52
2022-08-05T16:18:33.143Z,31.51
2022-08-05T16:21:04.192Z,31.73
2022-08-05T16:23:53.098Z,31.65
2022-08-05T16:26:26.129Z,31.68
2022-08-05T16:28:54.478Z,31.66
2022-08-05T16:31:22.214Z,31.61
2022-08-05T16:33:49.787Z,32.00
2022-08-05T16:36:20.560Z,32.15
2022-08-05T16:38:55.135Z,31.98
2022-08-05T16:42:13.534Z,32.22
2022-08-05T16:44:11.648Z,32.21
2022-08-05T16:46:41.075Z,32.17
2022-08-05T16:49:12.942Z,32.34
2022-08-05T16:51:42.669Z,32.61
2022-08-05T16:54:23.984Z,32.85
2022-08-05T16:56:54.491Z,32.77
2022-08-05T16:59:21.474Z,33.13
2022-08-05T17:01:54.365Z,33.17
2022-08-05T17:04:26.615Z,33.26
2022-08-05T17:06:55.637Z,33.48
2022-08-05T17:09:24.250Z,33.87
2022-08-05T17:11:59.710Z,34.00
2022-08-05T17:14:37.697Z,34.24
2022-08-05T17:17:14.453Z,34.49
2022-08-05T17:19:45.362Z,34.74
2022-08-05T17:22:25.009Z,34.65
2022-08-05T17:24:57.421Z,35.12
2022-08-05T17:27:33.492Z,35.29
2022-08-05T17:30:03.110Z,35.36
2022-08-05T17:32:32.224Z,35.70
2022-08-05T17:35:02.058Z,35.79
2022-08-05T17:37:41.556Z,36.12
2022-08-05T17:40:17.306Z,36.07
2022-08-05T17:42:51.946Z,36.16
2022-08-05T17:45:23.201Z,36.26
2022-08-05T17:47:55.541Z,36.52
2022-08-05T17:50:30.284Z,36.61
2022-08-05T17:53:00.180Z,36.71
2022-08-05T17:55:37.808Z,36.76
2022-08-05T17:58:12.831Z,36.92
2022-08-05T18:00:45.489Z,37.17
2022-08-05T18:06:11.535Z,37.33
2022-08-05T18:08:44.789Z,37.50
2022-08-05T18:11:23.302Z,37.83
2022-08-05T18:13:53.871Z,38.05
2022-08-05T18:16:20.948Z,38.09
2022-08-05T18:18:50.019Z,38.27
2022-08-05T18:21:23.020Z,38.19
2022-08-05T18:23:53.964Z,38.24
2022-08-05T18:26:27.807Z,38.46
2022-08-05T18:28:57.639Z,38.49
2022-08-05T18:31:25.695Z,38.59
2022-08-05T18:34:02.492Z,38.75
2022-08-05T18:36:29.699Z,38.91
2022-08-05T18:38:57.050Z,38.95
2022-08-05T18:41:55.402Z,39.12
2022-08-05T18:44:12.810Z,39.16
2022-08-05T18:46:41.093Z,39.18
2022-08-05T18:49:30.414Z,39.32
2022-08-05T18:52:16.383Z,39.70
2022-08-05T18:54:46.110Z,40.09
2022-08-05T18:57:15.176Z,40.19
2022-08-05T19:00:01.433Z,40.26
2022-08-05T19:02:29.991Z,40.39
2022-08-05T19:05:01.198Z,40.50
2022-08-05T19:07:46.320Z,40.65
2022-08-05T19:10:15.834Z,40.61
2022-08-05T19:12:44.011Z,40.86
2022-08-05T19:15:58.014Z,40.99
2022-08-05T19:18:09.540Z,41.20
2022-08-05T19:20:41.330Z,41.23
2022-08-05T19:24:05.881Z,41.30
2022-08-05T19:26:02.001Z,41.45
2022-08-05T19:28:34.814Z,41.74
2022-08-05T19:31:05.875Z,41.92
2022-08-05T19:33:36.821Z,41.92
2022-08-05T19:36:09.051Z,42.19
2022-08-05T19:38:36.626Z,42.27
2022-08-05T19:41:07.429Z,42.68
2022-08-05T19:44:06.192Z,42.85
2022-08-05T19:46:29.243Z,43.26
2022-08-05T19:49:04.453Z,43.54
2022-08-05T19:52:09.354Z,43.77
2022-08-05T19:54:29.767Z,44.15
2022-08-05T19:57:06.638Z,44.44
2022-08-05T19:59:56.073Z,44.66
2022-08-05T20:02:31.516Z,44.95
2022-08-05T20:04:59.661Z,45.27
2022-08-05T20:07:46.721Z,45.15
2022-08-05T20:10:16.599Z,45.32
2022-08-05T20:12:47.510Z,45.59
2022-08-05T20:15:22.928Z,45.68
2022-08-05T20:18:10.807Z,45.64
2022-08-05T20:20:55.950Z,45.79
2022-08-05T20:23:40.408Z,45.94
2022-08-05T20:26:16.236Z,46.09
2022-08-05T20:28:50.802Z,46.20
2022-08-05T20:31:21.398Z,46.46
2022-08-05T20:33:48.962Z,46.53
2022-08-05T20:36:18.021Z,46.59
2022-08-05T20:38:53.474Z,46.72
2022-08-05T20:41:23.887Z,46.71
2022-08-05T20:44:00.428Z,46.96
2022-08-05T20:46:33.752Z,47.16
2022-08-05T20:49:00.720Z,47.32
2022-08-05T20:51:29.979Z,47.39
2022-08-05T20:54:01.302Z,47.43
2022-08-05T20:56:34.037Z,47.45
2022-08-05T20:59:14.068Z,47.62
2022-08-05T21:01:47.487Z,47.51
2022-08-05T21:04:18.430Z,47.51
2022-08-05T21:06:46.107Z,47.71
2022-08-05T21:09:15.110Z,47.76
2022-08-05T21:12:09.147Z,47.78
2022-08-05T21:14:34.760Z,47.88
2022-08-05T21:17:05.473Z,47.81
2022-08-05T21:19:46.551Z,48.06
2022-08-05T21:22:18.420Z,48.03
2022-08-05T21:24:51.525Z,48.13
2022-08-05T21:27:25.441Z,48.24
2022-08-05T21:29:58.367Z,48.40
2022-08-05T21:32:29.717Z,48.40
2022-08-05T21:35:08.598Z,48.37
2022-08-05T21:37:52.936Z,48.38
2022-08-05T21:40:23.288Z,48.52
2022-08-05T21:42:52.624Z,48.57
2022-08-05T21:45:26.534Z,48.63
2022-08-05T21:48:10.067Z,48.65
2022-08-05T21:50:54.193Z,48.77
2022-08-05T21:53:27.040Z,48.81
2022-08-05T21:56:09.387Z,48.89
2022-08-05T21:58:48.405Z,48.88
2022-08-05T22:01:24.825Z,49.10
2022-08-05T22:03:53.766Z,49.20
2022-08-05T22:06:23.069Z,49.18
2022-08-05T22:09:02.154Z,49.28
2022-08-05T22:11:41.396Z,49.35
2022-08-05T22:14:35.613Z,49.50
2022-08-05T22:17:03.078Z,49.68
2022-08-05T22:20:03.522Z,49.66
2022-08-05T22:22:27.150Z,49.86
2022-08-05T22:25:23.977Z,50.00
2022-08-05T22:28:09.062Z,49.82
2022-08-05T22:30:56.213Z,50.10
2022-08-05T22:33:56.327Z,50.15
2022-08-05T22:36:15.993Z,50.26
2022-08-05T22:38:48.742Z,50.29
2022-08-05T22:41:26.436Z,50.39
2022-08-05T22:44:04.408Z,50.48
2022-08-05T22:46:31.391Z,50.41
2022-08-05T22:48:59.689Z,50.57
2022-08-05T22:52:03.043Z,50.46
2022-08-05T22:54:14.283Z,50.58
2022-08-05T22:56:41.272Z,50.68
2022-08-05T22:59:45.963Z,50.70
2022-08-05T23:02:06.019Z,50.84
2022-08-05T23:04:35.991Z,50.82
2022-08-05T23:07:03.421Z,50.72
2022-08-05T23:09:58.488Z,50.85
2022-08-05T23:12:20.482Z,50.97
2022-08-05T23:14:51.233Z,51.12
2022-08-05T23:17:34.060Z,51.10
2022-08-05T23:20:02.318Z,51.15
2022-08-05T23:22:30.804Z,51.18
2022-08-05T23:24:58.297Z,51.30
2022-08-05T23:27:28.776Z,51.29
2022-08-05T23:30:00.956Z,51.43
2022-08-05T23:32:28.741Z,51.47
2022-08-05T23:34:56.756Z,51.55
2022-08-05T23:37:23.669Z,51.61
2022-08-05T23:39:54.839Z,51.68
2022-08-05T23:42:29.442Z,51.77
2022-08-05T23:44:57.096Z,51.69
2022-08-05T23:47:25.267Z,51.87
2022-08-05T23:49:55.628Z,51.97
2022-08-05T23:52:29.304Z,51.82
2022-08-05T23:55:00.848Z,52.12
2022-08-05T23:57:28.528Z,52.13
